TimeHST,TemperatureF,Dew PointF,Humidity,Sea Level PressureIn,VisibilityMPH,Wind Direction,Wind SpeedMPH,Gust SpeedMPH,PrecipitationIn,Events,Conditions,WindDirDegrees,DateUTC
12:50 AM,71.6,69.8,94,30.00,6.2,ESE,3.5,-,0.00,Rain,Heavy Rain,110,2012-12-30 10:50:00
12:57 AM,71.6,69.1,92,29.98,10.0,Calm,Calm,-,0.00,Rain,Light Rain,0,2012-12-30 10:57:00
1:05 AM,73.4,69.8,88,29.99,6.2,Calm,Calm,-,0.00,,Overcast,0,2012-12-30 11:05:00
1:57 AM,71.6,70.0,95,29.97,10.0,East,3.5,-,0.00,,Partly Cloudy,100,2012-12-30 11:57:00
2:57 AM,73.4,70.0,89,29.96,10.0,Variable,4.6,-,N/A,,Scattered Clouds,0,2012-12-30 12:57:00
3:43 AM,73.4,69.8,88,29.98,6.2,East,3.5,-,N/A,,Mostly Cloudy,100,2012-12-30 13:43:00
3:57 AM,73.4,69.1,86,29.96,10.0,ESE,4.6,-,N/A,,Mostly Cloudy,110,2012-12-30 13:57:00
4:57 AM,73.4,69.1,86,29.97,10.0,East,8.1,-,N/A,,Overcast,90,2012-12-30 14:57:00
5:57 AM,71.6,66.9,85,29.99,10.0,South,4.6,-,0.00,Rain,Heavy Rain,170,2012-12-30 15:57:00
6:20 AM,71.6,69.8,94,30.00,6.2,SW,4.6,-,0.00,,Overcast,230,2012-12-30 16:20:00
6:35 AM,71.6,69.8,94,30.01,6.2,SSE,3.5,-,0.00,Rain,Heavy Rain,160,2012-12-30 16:35:00
6:47 AM,71.6,69.8,94,30.01,6.2,SW,3.5,-,N/A,Rain,Light Rain,230,2012-12-30 16:47:00
6:57 AM,71.6,70.0,95,30.00,10.0,Calm,Calm,-,N/A,Rain,Light Rain,0,2012-12-30 16:57:00
7:23 AM,71.6,69.8,94,30.02,6.2,Calm,Calm,-,N/A,Rain,Light Rain,0,2012-12-30 17:23:00
7:53 AM,69.8,69.8,100,30.03,6.2,Calm,Calm,-,N/A,,Overcast,0,2012-12-30 17:53:00
7:57 AM,70.0,70.0,100,30.01,10.0,Calm,Calm,-,N/A,Rain,Light Rain,0,2012-12-30 17:57:00
8:09 AM,69.8,69.8,100,30.03,6.2,SW,5.8,-,N/A,Rain,Light Rain,220,2012-12-30 18:09:00
8:30 AM,69.8,69.8,100,30.04,6.2,SSW,4.6,-,N/A,Rain,Light Rain,210,2012-12-30 18:30:00
8:57 AM,71.6,69.8,94,30.03,10.0,Variable,4.6,-,N/A,,Mostly Cloudy,0,2012-12-30 18:57:00
9:57 AM,73.4,70.3,90,30.04,10.0,SE,6.9,-,N/A,,Mostly Cloudy,130,2012-12-30 19:57:00
10:04 AM,73.4,69.8,88,30.05,6.2,East,13.8,21.9,N/A,,Mostly Cloudy,100,2012-12-30 20:04:00
10:57 AM,75.2,70.0,84,30.03,10.0,SE,8.1,-,N/A,,Mostly Cloudy,130,2012-12-30 20:57:00
11:57 AM,75.2,71.1,87,30.01,10.0,ESE,8.1,-,N/A,,Overcast,110,2012-12-30 21:57:00
12:57 PM,76.3,70.0,81,29.98,10.0,East,8.1,-,N/A,,Overcast,80,2012-12-30 22:57:00
1:57 PM,79.3,70.0,73,29.95,10.0,ENE,9.2,17.3,N/A,,Mostly Cloudy,60,2012-12-30 23:57:00
2:57 PM,78.8,72.0,79,29.95,10.0,East,4.6,-,N/A,,Mostly Cloudy,90,2012-12-31 00:57:00
3:57 PM,77.0,72.0,84,29.96,10.0,ESE,8.1,-,N/A,,Scattered Clouds,110,2012-12-31 01:57:00
4:57 PM,77.0,72.0,84,29.98,10.0,ESE,4.6,-,N/A,,Scattered Clouds,110,2012-12-31 02:57:00
5:57 PM,75.7,71.1,85,29.99,10.0,ENE,4.6,-,N/A,,Overcast,70,2012-12-31 03:57:00
6:57 PM,75.7,71.1,85,30.01,10.0,Calm,Calm,-,N/A,,Scattered Clouds,0,2012-12-31 04:57:00
7:57 PM,73.9,70.2,88,30.03,10.0,Calm,Calm,-,N/A,,Scattered Clouds,0,2012-12-31 05:57:00
8:57 PM,72.1,70.2,93,30.03,10.0,Calm,Calm,-,N/A,,Scattered Clouds,0,2012-12-31 06:57:00
9:02 PM,71.6,69.8,94,30.05,6.2,Calm,Calm,-,N/A,,Mostly Cloudy,0,2012-12-31 07:02:00
9:30 PM,71.6,69.8,94,30.04,6.2,West,3.5,-,N/A,,Mostly Cloudy,270,2012-12-31 07:30:00
9:57 PM,71.6,70.0,95,30.03,10.0,West,3.5,-,N/A,,Mostly Cloudy,270,2012-12-31 07:57:00
10:04 PM,71.6,69.8,94,30.04,6.2,Calm,Calm,-,N/A,,Scattered Clouds,0,2012-12-31 08:04:00
10:57 PM,71.6,70.0,95,30.03,10.0,Calm,Calm,-,N/A,,Scattered Clouds,0,2012-12-31 08:57:00
11:57 PM,71.6,71.1,98,30.01,10.0,Calm,Calm,-,N/A,,Partly Cloudy,0,2012-12-31 09:57:00